createdAt,value
2019-02-23T00:01:04.338Z,-4.45
2019-02-23T00:06:07.795Z,-4.51
2019-02-23T00:11:09.444Z,-4.59
2019-02-23T00:16:11.107Z,-4.58
2019-02-23T00:21:12.771Z,-4.50
2019-02-23T00:26:14.378Z,-4.58
2019-02-23T00:31:16.029Z,-4.66
2019-02-23T00:36:17.794Z,-4.68
2019-02-23T00:41:19.393Z,-4.75
2019-02-23T00:46:21.051Z,-4.71
2019-02-23T00:51:22.608Z,-4.75
2019-02-23T00:56:24.413Z,-4.76
2019-02-23T01:01:26.035Z,-4.76
2019-02-23T01:06:27.610Z,-4.75
2019-02-23T01:11:29.160Z,-4.80
2019-02-23T01:16:30.708Z,-4.79
2019-02-23T01:21:32.367Z,-4.79
2019-02-23T01:26:33.931Z,-4.82
2019-02-23T01:31:35.646Z,-4.87
2019-02-23T01:36:37.270Z,-4.87
2019-02-23T01:41:38.931Z,-4.92
2019-02-23T01:46:40.488Z,-4.90
2019-02-23T01:51:42.145Z,-4.87
2019-02-23T01:56:43.693Z,-4.88
2019-02-23T02:01:45.388Z,-4.85
2019-02-23T02:06:47.067Z,-4.85
2019-02-23T02:11:48.715Z,-4.94
2019-02-23T02:16:50.359Z,-4.95
2019-02-23T02:21:51.915Z,-4.98
2019-02-23T02:26:53.515Z,-4.99
2019-02-23T02:31:55.094Z,-5.03
2019-02-23T02:36:56.799Z,-5.09
2019-02-23T02:41:58.528Z,-5.07
2019-02-23T02:47:00.036Z,-5.15
2019-02-23T02:52:01.589Z,-5.16
2019-02-23T02:57:03.184Z,-5.16
2019-02-23T03:02:05.442Z,-5.17
2019-02-23T03:07:08.384Z,-5.21
2019-02-23T03:12:09.975Z,-5.22
2019-02-23T03:17:11.545Z,-5.21
2019-02-23T03:22:13.106Z,-5.23
2019-02-23T03:27:14.693Z,-5.28
2019-02-23T03:32:16.254Z,-5.33
2019-02-23T03:37:17.908Z,-5.37
2019-02-23T03:42:19.572Z,-5.42
2019-02-23T03:47:21.123Z,-5.42
2019-02-23T03:52:22.678Z,-5.43
2019-02-23T03:57:24.380Z,-5.45
2019-02-23T04:02:25.926Z,-5.45
2019-02-23T04:07:27.475Z,-5.48
2019-02-23T04:12:29.082Z,-5.50
2019-02-23T04:17:30.629Z,-5.50
2019-02-23T04:22:32.183Z,-5.59
2019-02-23T04:27:33.732Z,-5.72
2019-02-23T04:32:35.335Z,-5.72
2019-02-23T04:37:36.963Z,-5.80
2019-02-23T04:42:38.604Z,-5.89
2019-02-23T04:47:40.156Z,-5.94
2019-02-23T04:52:41.713Z,-5.97
2019-02-23T04:57:43.260Z,-5.96
2019-02-23T05:02:44.818Z,-5.94
2019-02-23T05:07:46.356Z,-5.91
2019-02-23T05:12:48.203Z,-5.88
2019-02-23T05:17:49.810Z,-5.79
2019-02-23T05:22:51.360Z,-5.79
2019-02-23T05:27:53.018Z,-5.84
2019-02-23T05:32:54.573Z,-5.89
2019-02-23T05:37:56.233Z,-5.93
2019-02-23T05:43:01.015Z,-5.88
2019-02-23T05:48:01.344Z,-5.88
2019-02-23T05:53:02.901Z,-5.89
2019-02-23T05:58:04.453Z,-5.88
2019-02-23T06:03:06.139Z,-5.82
2019-02-23T06:08:07.700Z,-5.65
2019-02-23T06:13:09.350Z,-4.74
2019-02-23T06:18:10.944Z,-4.28
2019-02-23T06:23:12.715Z,-4.32
2019-02-23T06:28:15.266Z,-3.90
2019-02-23T06:33:16.887Z,-3.15
2019-02-23T06:38:18.572Z,-2.56
2019-02-23T06:43:20.393Z,-1.92
2019-02-23T06:48:21.951Z,-1.57
2019-02-23T06:53:23.697Z,-0.97
2019-02-23T06:58:25.240Z,-0.51
2019-02-23T07:03:28.831Z,-0.23
2019-02-23T07:08:30.488Z,0.08
2019-02-23T07:13:32.048Z,0.29
2019-02-23T07:18:33.614Z,0.55
2019-02-23T07:23:35.162Z,0.97
2019-02-23T07:28:36.719Z,1.13
2019-02-23T07:33:38.540Z,1.12
2019-02-23T07:38:40.162Z,1.46
2019-02-23T07:43:41.714Z,1.55
2019-02-23T07:48:44.327Z,1.79
2019-02-23T07:53:45.874Z,1.96
2019-02-23T07:58:47.464Z,2.02
2019-02-23T08:03:49.064Z,2.14
2019-02-23T08:08:50.652Z,2.12
2019-02-23T08:13:52.213Z,2.16
2019-02-23T08:18:54.758Z,2.33
2019-02-23T08:23:56.309Z,2.66
2019-02-23T08:28:57.872Z,2.51
2019-02-23T08:33:59.426Z,2.30
2019-02-23T08:39:01.122Z,2.27
2019-02-23T08:44:04.568Z,2.36
2019-02-23T08:49:06.136Z,1.88
2019-02-23T08:54:07.700Z,1.67
2019-02-23T08:59:09.259Z,1.46
2019-02-23T09:04:10.866Z,1.40
2019-02-23T09:09:12.475Z,1.41
2019-02-23T09:14:14.028Z,1.41
2019-02-23T09:19:15.584Z,1.58
2019-02-23T09:24:17.149Z,2.01
2019-02-23T09:29:18.705Z,2.25
2019-02-23T09:34:20.268Z,2.37
2019-02-23T09:39:22.156Z,2.60
2019-02-23T09:44:23.764Z,2.79
2019-02-23T09:49:25.573Z,2.93
2019-02-23T09:54:27.124Z,3.68
2019-02-23T09:59:29.675Z,4.09
2019-02-23T10:04:31.229Z,4.08
2019-02-23T10:09:32.790Z,3.93
2019-02-23T10:14:34.407Z,3.78
2019-02-23T10:19:35.968Z,3.66
2019-02-23T10:24:37.518Z,3.67
2019-02-23T10:29:39.076Z,3.26
2019-02-23T10:34:40.626Z,2.92
2019-02-23T10:39:42.306Z,2.48
2019-02-23T10:44:43.949Z,2.06
2019-02-23T10:49:45.509Z,1.39
2019-02-23T10:54:47.331Z,0.99
2019-02-23T10:59:48.912Z,0.94
2019-02-23T11:04:50.459Z,1.43
2019-02-23T11:09:52.111Z,1.56
2019-02-23T11:14:53.700Z,1.49
2019-02-23T11:19:55.468Z,1.84
2019-02-23T11:24:57.723Z,2.86
2019-02-23T11:29:59.324Z,3.73
2019-02-23T11:35:00.887Z,4.62
2019-02-23T11:40:05.448Z,4.95
2019-02-23T11:45:09.196Z,5.38
2019-02-23T11:50:12.047Z,5.61
2019-02-23T11:55:14.608Z,6.00
2019-02-23T12:00:16.258Z,5.84
2019-02-23T12:05:17.908Z,5.58
2019-02-23T12:10:19.467Z,4.35
2019-02-23T12:15:21.054Z,3.92
2019-02-23T12:20:22.617Z,3.45
2019-02-23T12:25:26.388Z,3.10
2019-02-23T12:30:28.006Z,2.82
2019-02-23T12:35:29.553Z,2.67
2019-02-23T12:40:31.205Z,2.68
2019-02-23T12:45:32.755Z,2.31
2019-02-23T12:50:34.320Z,2.05
2019-02-23T12:55:36.119Z,1.82
2019-02-23T13:00:37.827Z,1.66
2019-02-23T13:05:39.481Z,1.46
2019-02-23T13:10:41.342Z,1.44
2019-02-23T13:16:00.442Z,1.55
2019-02-23T13:21:16.612Z,1.50
2019-02-23T13:26:29.627Z,1.63
2019-02-23T13:32:03.939Z,2.45
2019-02-23T13:37:41.424Z,3.20
2019-02-23T13:43:23.467Z,3.88
2019-02-23T13:49:01.919Z,4.63
2019-02-23T13:54:40.774Z,5.21
2019-02-23T14:00:16.381Z,5.66
2019-02-23T14:05:35.143Z,5.77
2019-02-23T14:11:10.615Z,5.70
2019-02-23T14:16:38.810Z,5.48
2019-02-23T14:22:00.357Z,5.45
2019-02-23T14:27:38.989Z,5.28
2019-02-23T14:33:27.240Z,5.30
2019-02-23T14:38:43.113Z,5.17
2019-02-23T14:44:02.205Z,4.90
2019-02-23T14:49:28.564Z,4.93
2019-02-23T14:55:00.726Z,4.88
2019-02-23T15:00:14.805Z,4.61
2019-02-23T15:05:30.885Z,4.18
2019-02-23T15:11:05.006Z,3.90
2019-02-23T15:16:50.194Z,3.75
2019-02-23T15:22:34.997Z,3.25
2019-02-23T15:28:24.878Z,2.84
2019-02-23T15:33:41.477Z,2.88
2019-02-23T15:39:12.814Z,2.71
2019-02-23T15:45:03.528Z,2.46
2019-02-23T15:50:13.119Z,2.16
2019-02-23T15:55:08.870Z,1.93
2019-02-23T16:00:10.725Z,1.76
2019-02-23T16:05:12.984Z,1.59
2019-02-23T16:10:17.585Z,1.49
2019-02-23T16:15:18.184Z,1.35
2019-02-23T16:20:19.844Z,1.20
2019-02-23T16:25:21.405Z,1.08
2019-02-23T16:30:22.981Z,0.94
2019-02-23T16:35:24.671Z,0.79
2019-02-23T16:40:26.267Z,0.73
2019-02-23T16:45:27.906Z,0.64
2019-02-23T16:50:29.466Z,0.52
2019-02-23T16:55:32.141Z,0.43
2019-02-23T17:00:33.988Z,0.32
2019-02-23T17:05:35.695Z,0.16
2019-02-23T17:10:37.352Z,0.01
2019-02-23T17:15:38.918Z,-0.15
2019-02-23T17:20:40.496Z,-0.19
2019-02-23T17:25:42.059Z,-0.25
2019-02-23T17:30:43.666Z,-0.32
2019-02-23T17:35:45.287Z,-0.27
2019-02-23T17:40:46.885Z,-0.35
2019-02-23T17:45:48.531Z,-0.39
2019-02-23T17:50:50.778Z,-0.41
2019-02-23T17:55:52.417Z,-0.47
2019-02-23T18:00:55.602Z,-0.60
2019-02-23T18:05:58.393Z,-0.66
2019-02-23T18:11:00.562Z,-0.72
2019-02-23T18:16:02.212Z,-0.86
2019-02-23T18:21:03.984Z,-0.99
2019-02-23T18:26:05.636Z,-1.09
2019-02-23T18:31:07.388Z,-1.21
2019-02-23T18:36:08.982Z,-1.34
2019-02-23T18:41:10.884Z,-1.38
2019-02-23T18:46:12.622Z,-1.43
2019-02-23T18:51:14.424Z,-1.46
2019-02-23T18:56:16.172Z,-1.58
2019-02-23T19:01:17.970Z,-1.65
2019-02-23T19:06:19.742Z,-1.72
2019-02-23T19:11:21.432Z,-1.74
2019-02-23T19:16:23.447Z,-1.82
2019-02-23T19:21:25.061Z,-1.84
2019-02-23T19:26:26.985Z,-1.98
2019-02-23T19:31:28.707Z,-1.94
2019-02-23T19:36:30.392Z,-2.01
2019-02-23T19:41:32.053Z,-2.06
2019-02-23T19:46:37.974Z,-2.12
2019-02-23T19:51:39.640Z,-2.26
2019-02-23T19:56:46.832Z,-2.30
2019-02-23T20:01:45.057Z,-2.28
2019-02-23T20:06:47.185Z,-2.33
2019-02-23T20:11:48.843Z,-2.41
2019-02-23T20:16:51.505Z,-2.48
2019-02-23T20:21:53.075Z,-2.54
2019-02-23T20:26:55.831Z,-2.59
2019-02-23T20:31:57.575Z,-2.62
2019-02-23T20:36:59.157Z,-2.60
2019-02-23T20:42:00.807Z,-2.68
2019-02-23T20:47:02.556Z,-2.66
2019-02-23T20:52:04.333Z,-2.63
2019-02-23T20:57:13.932Z,-2.65
2019-02-23T21:02:13.335Z,-2.68
2019-02-23T21:07:15.091Z,-2.75
2019-02-23T21:12:16.740Z,-2.81
2019-02-23T21:17:18.292Z,-2.79
2019-02-23T21:22:19.866Z,-2.77
2019-02-23T21:27:21.495Z,-2.71
2019-02-23T21:32:23.100Z,-2.67
2019-02-23T21:37:24.659Z,-2.61
2019-02-23T21:42:26.216Z,-2.61
2019-02-23T21:47:27.889Z,-2.58
2019-02-23T21:52:29.448Z,-2.56
2019-02-23T21:57:31.206Z,-2.48
2019-02-23T22:02:32.813Z,-2.54
2019-02-23T22:07:34.469Z,-2.56
2019-02-23T22:12:37.021Z,-2.58
2019-02-23T22:17:38.567Z,-2.60
2019-02-23T22:22:40.119Z,-2.58
2019-02-23T22:27:41.671Z,-2.58
2019-02-23T22:32:43.267Z,-2.67
2019-02-23T22:37:44.878Z,-2.75
2019-02-23T22:42:46.431Z,-2.88
2019-02-23T22:47:48.070Z,-2.87
2019-02-23T22:52:49.628Z,-2.99
2019-02-23T22:57:51.193Z,-2.99
2019-02-23T23:02:52.940Z,-2.98
2019-02-23T23:07:55.380Z,-3.00
2019-02-23T23:12:57.806Z,-3.20
2019-02-23T23:17:59.444Z,-3.21
2019-02-23T23:23:01.005Z,-3.23
2019-02-23T23:28:02.567Z,-3.27
2019-02-23T23:33:05.261Z,-3.29
2019-02-23T23:38:06.873Z,-3.29
2019-02-23T23:43:08.423Z,-3.32
2019-02-23T23:48:10.059Z,-3.36
2019-02-23T23:53:11.742Z,-3.46
2019-02-23T23:58:13.300Z,-3.49
